createdAt,value
2023-01-30T00:01:44.160Z,35.17
2023-01-30T00:04:17.122Z,30.47
2023-01-30T00:06:43.953Z,32.77
2023-01-30T00:09:15.112Z,34.77
2023-01-30T00:11:42.624Z,24.73
2023-01-30T00:14:09.464Z,28.83
2023-01-30T00:16:36.150Z,27.43
2023-01-30T00:19:02.852Z,31.20
2023-01-30T00:21:29.517Z,33.63
2023-01-30T00:23:56.170Z,30.20
2023-01-30T00:26:22.847Z,29.03
2023-01-30T00:28:49.543Z,35.63
2023-01-30T00:31:16.237Z,27.37
2023-01-30T00:33:43.658Z,29.13
2023-01-30T00:36:10.867Z,33.47
2023-01-30T00:38:37.479Z,32.50
2023-01-30T00:41:06.978Z,28.30
2023-01-30T00:43:52.079Z,30.27
2023-01-30T00:46:47.107Z,34.57
2023-01-30T00:49:14.138Z,33.17
2023-01-30T00:51:41.093Z,30.30
2023-01-30T00:54:07.792Z,28.10
2023-01-30T00:56:35.043Z,29.60
2023-01-30T00:59:01.789Z,30.13
2023-01-30T01:01:28.473Z,29.77
2023-01-30T01:03:55.142Z,34.57
2023-01-30T01:06:21.733Z,34.67
2023-01-30T01:08:48.417Z,29.67
2023-01-30T01:11:25.076Z,27.00
2023-01-30T01:13:58.991Z,27.60
2023-01-30T01:16:26.822Z,30.77
2023-01-30T01:18:53.868Z,29.23
2023-01-30T01:21:21.059Z,31.50
2023-01-30T01:23:51.691Z,30.73
2023-01-30T01:26:19.035Z,30.43
2023-01-30T01:28:46.246Z,29.47
2023-01-30T01:31:13.988Z,32.97
2023-01-30T01:33:40.725Z,35.80
2023-01-30T01:36:07.671Z,29.77
2023-01-30T01:38:34.931Z,29.60
2023-01-30T01:41:10.015Z,34.70
2023-01-30T01:43:37.887Z,31.97
2023-01-30T01:46:30.980Z,32.53
2023-01-30T01:48:59.172Z,30.33
2023-01-30T01:51:34.857Z,34.90
2023-01-30T01:54:24.776Z,33.97
2023-01-30T01:56:51.788Z,28.90
2023-01-30T01:59:28.059Z,26.50
2023-01-30T02:01:58.446Z,35.50
2023-01-30T02:04:44.920Z,29.37
2023-01-30T02:07:11.821Z,28.33
2023-01-30T02:09:38.624Z,29.17
2023-01-30T02:12:05.400Z,27.13
2023-01-30T02:14:33.485Z,25.60
2023-01-30T02:17:00.324Z,25.90
2023-01-30T02:19:46.443Z,30.40
2023-01-30T02:22:24.918Z,29.47
2023-01-30T02:25:06.731Z,29.47
2023-01-30T02:27:33.511Z,29.27
2023-01-30T02:30:19.371Z,31.80
2023-01-30T02:32:52.412Z,29.93
2023-01-30T02:35:32.627Z,28.80
2023-01-30T02:38:18.159Z,33.33
2023-01-30T02:40:54.063Z,28.03
2023-01-30T02:43:27.452Z,27.13
2023-01-30T02:45:56.254Z,29.27
2023-01-30T02:48:49.123Z,27.23
2023-01-30T02:51:24.071Z,30.57
2023-01-30T02:53:51.144Z,29.40
2023-01-30T02:56:19.568Z,32.07
2023-01-30T02:58:54.733Z,29.17
2023-01-30T03:01:34.382Z,32.73
2023-01-30T03:04:10.246Z,25.80
2023-01-30T03:06:46.158Z,25.00
2023-01-30T03:09:15.916Z,32.60
2023-01-30T03:11:48.915Z,26.67
2023-01-30T03:14:21.726Z,27.43
2023-01-30T03:16:50.011Z,31.67
2023-01-30T03:19:19.478Z,26.70
2023-01-30T03:21:47.103Z,28.97
2023-01-30T03:24:14.010Z,24.83
2023-01-30T03:26:45.642Z,29.67
2023-01-30T03:29:12.405Z,26.00
2023-01-30T03:31:39.673Z,30.37
2023-01-30T03:34:06.382Z,28.67
2023-01-30T03:36:33.114Z,27.63
2023-01-30T03:39:00.018Z,24.33
2023-01-30T03:41:26.690Z,32.43
2023-01-30T03:43:53.960Z,28.60
2023-01-30T03:46:20.660Z,24.33
2023-01-30T03:48:48.052Z,31.10
2023-01-30T03:51:14.759Z,28.43
2023-01-30T03:53:41.430Z,29.10
2023-01-30T03:56:09.529Z,27.77
2023-01-30T03:58:36.823Z,29.37
2023-01-30T04:01:15.589Z,32.77
2023-01-30T04:03:42.337Z,29.20
2023-01-30T04:06:08.917Z,28.80
2023-01-30T04:08:35.624Z,30.77
2023-01-30T04:11:05.192Z,24.40
2023-01-30T04:13:31.958Z,28.07
2023-01-30T04:16:17.455Z,28.23
2023-01-30T04:19:06.832Z,26.57
2023-01-30T04:21:33.748Z,27.17
2023-01-30T04:24:00.475Z,29.50
2023-01-30T04:26:27.552Z,27.03
2023-01-30T04:28:54.940Z,29.97
2023-01-30T04:31:22.536Z,29.53
2023-01-30T04:34:12.584Z,31.90
2023-01-30T04:36:39.480Z,27.10
2023-01-30T04:39:06.143Z,29.30
2023-01-30T04:41:33.716Z,27.70
2023-01-30T04:44:01.356Z,26.33
2023-01-30T04:46:30.591Z,28.27
2023-01-30T04:48:57.349Z,29.77
2023-01-30T04:51:25.660Z,25.80
2023-01-30T04:53:52.309Z,24.80
2023-01-30T04:56:19.149Z,23.93
2023-01-30T04:58:48.004Z,26.83
2023-01-30T05:01:25.743Z,27.03
2023-01-30T05:03:53.166Z,29.90
2023-01-30T05:06:20.086Z,24.53
2023-01-30T05:08:50.034Z,28.13
2023-01-30T05:11:16.896Z,24.93
2023-01-30T05:13:46.532Z,27.07
2023-01-30T05:16:13.776Z,27.10
2023-01-30T05:18:40.485Z,22.77
2023-01-30T05:21:08.327Z,22.40
2023-01-30T05:23:35.206Z,21.27
2023-01-30T05:26:02.159Z,22.03
2023-01-30T05:28:29.313Z,22.13
2023-01-30T05:31:01.065Z,20.57
2023-01-30T05:33:27.718Z,20.10
2023-01-30T05:35:54.486Z,18.07
2023-01-30T05:38:22.340Z,16.70
2023-01-30T05:40:57.722Z,18.23
2023-01-30T05:43:24.282Z,22.43
2023-01-30T05:45:54.829Z,19.47
2023-01-30T05:48:22.046Z,18.57
2023-01-30T05:50:52.415Z,16.87
2023-01-30T05:53:19.622Z,17.23
2023-01-30T05:55:46.433Z,19.33
2023-01-30T05:58:13.197Z,17.13
2023-01-30T06:00:39.842Z,19.13
2023-01-30T06:03:06.532Z,16.50
2023-01-30T06:05:33.135Z,14.17
2023-01-30T06:07:59.697Z,15.63
2023-01-30T06:10:26.311Z,18.80
2023-01-30T06:12:52.900Z,16.73
2023-01-30T06:15:19.868Z,14.87
2023-01-30T06:17:47.091Z,15.83
2023-01-30T06:20:13.922Z,17.83
2023-01-30T06:22:40.538Z,16.00
2023-01-30T06:25:07.598Z,14.90
2023-01-30T06:27:34.217Z,16.17
2023-01-30T06:30:00.824Z,12.33
2023-01-30T06:32:27.416Z,16.30
2023-01-30T06:34:54.037Z,12.87
2023-01-30T06:37:20.717Z,13.40
2023-01-30T06:39:47.364Z,14.70
2023-01-30T06:42:13.947Z,16.10
2023-01-30T06:44:40.658Z,16.03
2023-01-30T06:47:07.277Z,16.17
2023-01-30T06:49:33.832Z,14.23
2023-01-30T06:52:00.514Z,13.90
2023-01-30T06:54:27.238Z,15.47
2023-01-30T06:56:53.960Z,15.97
2023-01-30T06:59:20.645Z,12.40
2023-01-30T07:01:47.255Z,13.40
2023-01-30T07:04:13.913Z,13.60
2023-01-30T07:06:40.522Z,13.90
2023-01-30T07:09:07.121Z,12.97
2023-01-30T07:11:33.719Z,12.73
2023-01-30T07:14:00.735Z,12.93
2023-01-30T07:16:29.587Z,11.67
2023-01-30T07:18:58.577Z,15.03
2023-01-30T07:21:25.680Z,13.67
2023-01-30T07:23:52.334Z,13.97
2023-01-30T07:26:18.991Z,11.83
2023-01-30T07:28:45.643Z,11.73
2023-01-30T07:31:12.221Z,11.67
2023-01-30T07:33:38.860Z,12.40
2023-01-30T07:36:05.605Z,10.53
2023-01-30T07:38:32.248Z,12.73
2023-01-30T07:40:58.924Z,12.87
2023-01-30T07:43:25.704Z,14.43
2023-01-30T07:45:52.332Z,12.00
2023-01-30T07:48:19.441Z,17.13
2023-01-30T07:50:46.602Z,12.73
2023-01-30T07:53:14.245Z,14.33
2023-01-30T07:55:40.999Z,13.13
2023-01-30T07:58:07.770Z,19.13
2023-01-30T08:00:36.057Z,19.87
2023-01-30T08:03:02.663Z,16.73
2023-01-30T08:05:29.350Z,16.53
2023-01-30T08:07:56.487Z,21.90
2023-01-30T08:10:23.165Z,21.43
2023-01-30T08:12:50.125Z,16.00
2023-01-30T08:15:16.804Z,18.37
2023-01-30T08:17:43.397Z,19.37
2023-01-30T08:20:10.511Z,21.63
2023-01-30T08:22:37.124Z,21.07
2023-01-30T08:25:04.212Z,19.07
2023-01-30T08:27:30.817Z,17.93
2023-01-30T08:29:57.567Z,17.47
2023-01-30T08:32:24.288Z,19.30
2023-01-30T08:34:50.897Z,19.43
2023-01-30T08:37:17.507Z,21.10
2023-01-30T08:39:44.080Z,25.90
2023-01-30T08:42:10.670Z,19.57
2023-01-30T08:44:37.359Z,21.67
2023-01-30T08:47:04.234Z,22.80
2023-01-30T08:49:30.854Z,21.70
2023-01-30T08:51:57.551Z,17.50
2023-01-30T08:54:24.184Z,22.10
2023-01-30T08:56:50.834Z,20.43
2023-01-30T08:59:17.584Z,23.27
2023-01-30T09:01:44.165Z,27.53
2023-01-30T09:04:10.716Z,17.90
2023-01-30T09:06:37.364Z,16.00
2023-01-30T09:09:04.461Z,16.93
2023-01-30T09:11:31.133Z,19.90
2023-01-30T09:13:57.850Z,17.57
2023-01-30T09:16:24.711Z,23.40
2023-01-30T09:18:51.345Z,24.17
2023-01-30T09:21:18.004Z,22.23
2023-01-30T09:23:44.710Z,14.10
2023-01-30T09:26:11.432Z,16.03
2023-01-30T09:28:38.125Z,17.80
2023-01-30T09:31:04.906Z,16.83
2023-01-30T09:33:31.904Z,18.73
2023-01-30T09:35:58.479Z,18.00
2023-01-30T09:38:25.487Z,16.07
2023-01-30T09:40:56.410Z,18.47
2023-01-30T09:43:41.949Z,16.33
2023-01-30T09:46:13.097Z,14.10
2023-01-30T09:48:49.203Z,14.67
2023-01-30T09:51:34.667Z,15.17
2023-01-30T09:54:04.238Z,11.00
2023-01-30T09:56:31.184Z,16.77
2023-01-30T09:58:59.247Z,15.33
2023-01-30T10:01:29.282Z,13.87
2023-01-30T10:04:06.328Z,11.90
2023-01-30T10:06:36.570Z,14.20
2023-01-30T10:09:11.423Z,13.97
2023-01-30T10:11:53.173Z,9.53
2023-01-30T10:14:25.765Z,13.23
2023-01-30T10:17:01.342Z,10.40
2023-01-30T10:19:37.170Z,14.07
2023-01-30T10:22:12.639Z,11.67
2023-01-30T10:24:58.161Z,10.77
2023-01-30T10:27:25.746Z,13.93
2023-01-30T10:29:54.225Z,13.00
2023-01-30T10:32:27.438Z,17.60
2023-01-30T10:34:56.077Z,12.27
2023-01-30T10:37:41.929Z,10.63
2023-01-30T10:40:19.579Z,11.23
2023-01-30T10:42:55.083Z,11.57
2023-01-30T10:45:25.525Z,12.10
2023-01-30T10:47:52.182Z,8.33
2023-01-30T10:50:21.622Z,9.60
2023-01-30T10:52:56.313Z,10.90
2023-01-30T10:55:36.382Z,15.47
2023-01-30T10:58:06.987Z,6.23
2023-01-30T11:00:51.792Z,9.17
2023-01-30T11:03:21.784Z,7.47
2023-01-30T11:05:59.738Z,6.40
2023-01-30T11:08:27.883Z,6.80
2023-01-30T11:10:55.175Z,5.27
2023-01-30T11:13:25.575Z,10.00
2023-01-30T11:15:53.715Z,13.57
2023-01-30T11:19:16.608Z,7.17
2023-01-30T11:21:09.720Z,9.70
2023-01-30T11:23:43.150Z,9.23
2023-01-30T11:26:19.382Z,10.47
2023-01-30T11:28:48.490Z,11.40
2023-01-30T11:31:40.311Z,10.93
2023-01-30T11:34:15.274Z,10.37
2023-01-30T11:36:42.242Z,11.17
2023-01-30T11:39:18.838Z,11.00
2023-01-30T11:41:55.459Z,12.83
2023-01-30T11:44:29.764Z,11.67
2023-01-30T11:47:00.270Z,9.30
2023-01-30T11:49:45.361Z,12.57
2023-01-30T11:52:17.903Z,7.17
2023-01-30T11:54:45.338Z,10.20
2023-01-30T11:57:14.402Z,10.93
2023-01-30T11:59:46.724Z,11.33
2023-01-30T12:02:16.444Z,12.20
2023-01-30T12:04:44.267Z,11.27
2023-01-30T12:07:16.916Z,12.17
2023-01-30T12:09:43.527Z,12.53
2023-01-30T12:12:28.518Z,11.67
2023-01-30T12:15:00.967Z,9.50
2023-01-30T12:17:33.314Z,11.83
2023-01-30T12:19:59.939Z,14.47
2023-01-30T12:22:41.347Z,11.17
2023-01-30T12:25:30.837Z,12.30
2023-01-30T12:28:11.253Z,21.00
2023-01-30T12:30:47.749Z,15.57
2023-01-30T12:35:50.314Z,12.77
2023-01-30T12:38:23.199Z,15.83
2023-01-30T12:40:59.439Z,10.40
2023-01-30T12:43:35.576Z,11.33
2023-01-30T12:46:15.696Z,9.93
2023-01-30T12:49:02.472Z,9.47
2023-01-30T12:51:50.441Z,14.10
2023-01-30T12:54:35.778Z,8.87
2023-01-30T12:57:02.356Z,10.87
2023-01-30T12:59:28.971Z,11.77
2023-01-30T13:02:01.405Z,18.07
2023-01-30T13:05:04.661Z,13.77
2023-01-30T13:07:54.966Z,16.70
2023-01-30T13:10:22.043Z,13.23
2023-01-30T13:12:48.974Z,9.63
2023-01-30T13:15:35.821Z,15.57
2023-01-30T13:18:15.142Z,14.03
2023-01-30T13:21:00.741Z,17.43
2023-01-30T13:23:27.320Z,12.53
2023-01-30T13:26:11.239Z,14.20
2023-01-30T13:28:40.530Z,11.50
2023-01-30T13:31:09.650Z,11.27
2023-01-30T13:33:37.828Z,12.53
2023-01-30T13:36:08.221Z,11.97
2023-01-30T13:38:36.327Z,15.93
2023-01-30T13:41:03.591Z,14.27
2023-01-30T13:43:31.893Z,13.67
2023-01-30T13:46:02.907Z,14.07
2023-01-30T13:48:44.797Z,9.90
2023-01-30T13:51:11.379Z,12.47
2023-01-30T13:53:42.908Z,13.33
2023-01-30T13:56:27.044Z,14.77
2023-01-30T13:59:01.552Z,11.80
2023-01-30T14:02:03.967Z,7.77
2023-01-30T14:04:30.677Z,14.77
2023-01-30T14:07:29.655Z,11.27
2023-01-30T14:10:12.282Z,10.43
2023-01-30T14:12:38.886Z,8.80
2023-01-30T14:15:14.773Z,14.13
2023-01-30T14:18:05.459Z,14.83
2023-01-30T14:20:36.940Z,15.80
2023-01-30T14:23:19.116Z,10.70
2023-01-30T14:25:50.081Z,15.33
2023-01-30T14:28:16.867Z,15.00
2023-01-30T14:30:48.272Z,11.40
2023-01-30T14:33:21.136Z,10.73
2023-01-30T14:35:47.665Z,14.07
2023-01-30T14:38:15.942Z,9.30
2023-01-30T14:40:46.692Z,10.37
2023-01-30T14:43:13.381Z,15.37
2023-01-30T14:46:00.949Z,17.13
2023-01-30T14:48:28.539Z,14.37
2023-01-30T14:51:14.295Z,17.80
2023-01-30T14:53:59.369Z,14.43
2023-01-30T14:56:39.501Z,10.63
2023-01-30T14:59:15.476Z,9.73
2023-01-30T15:01:59.327Z,12.40
2023-01-30T15:04:49.449Z,10.17
2023-01-30T15:07:26.446Z,10.67
2023-01-30T15:10:05.546Z,12.67
2023-01-30T15:12:49.156Z,11.73
2023-01-30T15:15:15.750Z,11.40
2023-01-30T15:18:06.051Z,13.07
2023-01-30T15:20:40.564Z,10.40
2023-01-30T15:23:27.152Z,9.53
2023-01-30T15:25:59.554Z,12.43
2023-01-30T15:28:41.272Z,12.90
2023-01-30T15:31:07.979Z,13.53
2023-01-30T15:33:42.914Z,13.53
2023-01-30T15:36:18.954Z,20.93
2023-01-30T15:38:45.976Z,13.50
2023-01-30T15:41:12.523Z,12.93
2023-01-30T15:43:58.014Z,18.50
2023-01-30T15:46:33.557Z,15.20
2023-01-30T15:49:06.224Z,12.53
2023-01-30T15:51:33.873Z,13.57
2023-01-30T15:54:02.701Z,9.50
2023-01-30T15:56:30.698Z,12.63
2023-01-30T15:59:01.729Z,12.87
2023-01-30T16:01:28.865Z,12.73
2023-01-30T16:03:57.921Z,14.70
2023-01-30T16:06:24.623Z,12.80
2023-01-30T16:08:56.295Z,11.73
2023-01-30T16:11:36.220Z,11.80
2023-01-30T16:14:02.792Z,16.63
2023-01-30T16:16:30.114Z,12.03
2023-01-30T16:19:00.023Z,15.53
2023-01-30T16:21:31.193Z,11.00
2023-01-30T16:24:09.174Z,11.57
2023-01-30T16:26:36.526Z,12.47
2023-01-30T16:29:05.895Z,13.17
2023-01-30T16:31:38.331Z,16.87
2023-01-30T16:34:05.295Z,8.63
2023-01-30T16:36:37.864Z,19.00
2023-01-30T16:39:24.457Z,13.63
2023-01-30T16:41:55.460Z,18.63
2023-01-30T16:44:26.145Z,12.73
2023-01-30T16:46:53.061Z,12.87
2023-01-30T16:49:37.991Z,14.27
2023-01-30T16:52:10.654Z,10.53
2023-01-30T16:54:39.667Z,14.20
2023-01-30T16:57:06.600Z,10.27
2023-01-30T16:59:34.923Z,11.30
2023-01-30T17:02:03.086Z,15.17
2023-01-30T17:04:31.489Z,12.87
2023-01-30T17:07:00.960Z,14.40
2023-01-30T17:09:41.947Z,9.33
2023-01-30T17:12:23.531Z,14.37
2023-01-30T17:14:50.160Z,10.83
2023-01-30T17:17:16.979Z,14.87
2023-01-30T17:19:46.338Z,13.60
2023-01-30T17:22:20.683Z,13.47
2023-01-30T17:24:47.332Z,18.27
2023-01-30T17:27:14.123Z,20.73
2023-01-30T17:29:43.944Z,12.97
2023-01-30T17:32:12.090Z,11.20
2023-01-30T17:34:41.212Z,15.20
2023-01-30T17:37:14.019Z,13.30
2023-01-30T17:39:40.609Z,17.20
2023-01-30T17:42:11.016Z,15.23
2023-01-30T17:44:37.784Z,11.50
2023-01-30T17:47:04.730Z,15.87
2023-01-30T17:49:31.431Z,15.03
2023-01-30T17:51:59.816Z,12.47
2023-01-30T17:54:26.560Z,13.40
2023-01-30T17:56:55.219Z,9.50
2023-01-30T17:59:22.412Z,19.00
2023-01-30T18:01:50.403Z,18.23
2023-01-30T18:04:19.341Z,17.17
2023-01-30T18:06:47.306Z,13.97
2023-01-30T18:09:23.755Z,18.10
2023-01-30T18:11:50.845Z,15.27
2023-01-30T18:14:17.897Z,17.20
2023-01-30T18:16:44.941Z,21.80
2023-01-30T18:19:13.300Z,13.77
2023-01-30T18:21:40.237Z,13.30
2023-01-30T18:24:07.201Z,21.20
2023-01-30T18:26:33.800Z,11.93
2023-01-30T18:29:00.396Z,18.40
2023-01-30T18:31:30.939Z,20.07
2023-01-30T18:33:57.688Z,15.77
2023-01-30T18:36:24.834Z,15.97
2023-01-30T18:38:51.839Z,13.17
2023-01-30T18:41:20.750Z,17.60
2023-01-30T18:43:49.599Z,16.00
2023-01-30T18:46:18.044Z,14.37
2023-01-30T18:48:45.432Z,19.33
2023-01-30T18:51:17.187Z,18.33
2023-01-30T18:53:44.598Z,15.57
2023-01-30T18:56:12.124Z,13.43
2023-01-30T18:58:38.866Z,17.90
2023-01-30T19:01:14.336Z,15.23
2023-01-30T19:03:41.943Z,16.47
2023-01-30T19:06:10.715Z,23.63
2023-01-30T19:08:38.343Z,16.03
2023-01-30T19:11:27.619Z,11.23
2023-01-30T19:13:54.724Z,16.10
2023-01-30T19:16:22.102Z,14.27
2023-01-30T19:18:49.820Z,20.73
2023-01-30T19:21:17.040Z,11.90
2023-01-30T19:23:43.722Z,19.63
2023-01-30T19:26:10.632Z,13.10
2023-01-30T19:28:37.947Z,20.97
2023-01-30T19:31:10.760Z,16.07
2023-01-30T19:33:37.459Z,21.97
2023-01-30T19:36:07.992Z,17.17
2023-01-30T19:38:34.562Z,17.37
2023-01-30T19:41:01.625Z,21.80
2023-01-30T19:43:28.243Z,15.13
2023-01-30T19:45:58.818Z,14.50
2023-01-30T19:48:25.455Z,15.17
2023-01-30T19:50:52.191Z,15.97
2023-01-30T19:53:19.453Z,14.90
2023-01-30T19:55:52.602Z,15.80
2023-01-30T19:58:19.479Z,21.57
2023-01-30T20:00:46.188Z,20.13
2023-01-30T20:03:13.467Z,21.47
2023-01-30T20:05:40.243Z,13.30
2023-01-30T20:08:06.891Z,20.70
2023-01-30T20:10:33.780Z,17.97
2023-01-30T20:13:00.474Z,20.20
2023-01-30T20:15:27.083Z,21.30
2023-01-30T20:17:53.786Z,15.23
2023-01-30T20:20:21.036Z,14.07
2023-01-30T20:22:48.926Z,16.93
2023-01-30T20:25:15.732Z,18.33
2023-01-30T20:27:42.355Z,18.77
2023-01-30T20:30:09.278Z,16.23
2023-01-30T20:32:36.703Z,18.40
2023-01-30T20:35:03.809Z,11.80
2023-01-30T20:37:30.399Z,23.30
2023-01-30T20:39:57.401Z,19.63
2023-01-30T20:42:24.137Z,20.80
2023-01-30T20:44:50.750Z,14.30
2023-01-30T20:47:17.343Z,19.13
2023-01-30T20:49:44.672Z,14.10
2023-01-30T20:52:11.315Z,17.57
2023-01-30T20:54:38.288Z,19.93
2023-01-30T20:57:06.132Z,19.77
2023-01-30T20:59:32.730Z,20.13
2023-01-30T21:01:59.355Z,14.33
2023-01-30T21:04:26.567Z,14.50
2023-01-30T21:06:53.345Z,16.77
2023-01-30T21:09:21.561Z,22.83
2023-01-30T21:11:48.807Z,16.50
2023-01-30T21:14:15.694Z,14.90
2023-01-30T21:16:43.162Z,13.43
2023-01-30T21:19:13.814Z,14.63
2023-01-30T21:21:42.399Z,18.07
2023-01-30T21:24:12.385Z,21.43
2023-01-30T21:26:40.211Z,16.37
2023-01-30T21:29:08.442Z,19.67
2023-01-30T21:31:37.150Z,17.23
2023-01-30T21:34:04.159Z,19.87
2023-01-30T21:36:31.946Z,15.03
2023-01-30T21:39:17.437Z,15.27
2023-01-30T21:41:50.941Z,14.97
2023-01-30T21:44:18.825Z,17.43
2023-01-30T21:46:48.626Z,18.13
2023-01-30T21:49:15.878Z,19.60
2023-01-30T21:51:43.473Z,16.93
2023-01-30T21:54:10.145Z,19.47
2023-01-30T21:56:37.692Z,17.67
2023-01-30T21:59:05.578Z,17.47
2023-01-30T22:01:33.372Z,14.37
2023-01-30T22:04:00.869Z,23.87
2023-01-30T22:06:27.913Z,16.53
2023-01-30T22:08:58.399Z,21.30
2023-01-30T22:11:25.601Z,21.87
2023-01-30T22:13:52.628Z,18.13
2023-01-30T22:16:23.447Z,20.43
2023-01-30T22:18:54.625Z,17.60
2023-01-30T22:21:22.181Z,17.40
2023-01-30T22:23:49.981Z,11.97
2023-01-30T22:26:17.565Z,12.07
2023-01-30T22:28:44.210Z,18.30
2023-01-30T22:31:12.660Z,17.70
2023-01-30T22:33:39.682Z,21.57
2023-01-30T22:36:07.572Z,13.77
2023-01-30T22:38:34.641Z,19.97
2023-01-30T22:41:03.308Z,14.43
2023-01-30T22:43:30.875Z,17.90
2023-01-30T22:46:00.638Z,18.87
2023-01-30T22:48:28.491Z,14.13
2023-01-30T22:51:07.410Z,18.17
2023-01-30T22:53:41.121Z,16.70
2023-01-30T22:56:09.038Z,15.23
2023-01-30T22:58:35.711Z,19.60
2023-01-30T23:01:10.895Z,14.50
2023-01-30T23:03:37.768Z,18.07
2023-01-30T23:06:05.951Z,13.57
2023-01-30T23:08:34.046Z,11.73
2023-01-30T23:11:06.743Z,12.80
2023-01-30T23:13:33.483Z,15.77
2023-01-30T23:16:04.311Z,11.83
2023-01-30T23:18:49.509Z,20.20
2023-01-30T23:21:16.712Z,14.63
2023-01-30T23:23:43.933Z,19.77
2023-01-30T23:26:11.473Z,12.23
2023-01-30T23:28:39.003Z,12.80
2023-01-30T23:31:07.007Z,17.77
2023-01-30T23:33:33.657Z,16.00
2023-01-30T23:36:01.039Z,13.90
2023-01-30T23:38:27.864Z,15.53
2023-01-30T23:40:54.572Z,17.70
2023-01-30T23:43:21.249Z,13.10
2023-01-30T23:45:48.177Z,16.20
2023-01-30T23:48:14.902Z,14.50
2023-01-30T23:50:42.286Z,13.97
2023-01-30T23:53:09.397Z,14.97
2023-01-30T23:55:36.549Z,13.43
2023-01-30T23:58:03.202Z,16.17
